Time;durP1;ratioP1;P1;durP2;ratioP2;P2;SDS_P1;SDS_P2;PMS_P1;PMS_P2;Temp;Humidity;BMP_temperature;BMP_pressure;BME280_temperature;BME280_humidity;BME280_pressure;Samples;Min_cycle;Max_cycle;Signal;HPM_P1;HPM_P2
2022/11/17 00:05:07;;;;;;;9.70;5.10;;;;;;;4.65;80.33;99934.86;661214;1302;138050;-77
2022/11/17 00:35:33;;;;;;;8.70;5.20;;;;;;;4.13;78.84;99918.83;663165;1296;138001;-78
2022/11/17 00:50:36;;;;;;;10.70;7.20;;;;;;;3.82;79.60;99913.52;661611;1304;138008;-77
2022/11/17 01:05:39;;;;;;;16.50;7.10;;;;;;;3.63;80.29;99916.67;661638;1307;138231;-77
2022/11/17 01:20:42;;;;;;;10.60;6.20;;;;;;;3.45;80.77;99920.46;661495;1310;138231;-77
2022/11/17 01:35:46;;;;;;;14.80;8.30;;;;;;;3.17;81.37;99907.55;661457;1310;138744;-77
2022/11/17 01:50:49;;;;;;;16.10;7.70;;;;;;;3.01;82.02;99901.92;661563;1310;138264;-77
2022/11/17 02:06:08;;;;;;;12.60;6.40;;;;;;;2.86;82.48;99896.13;661848;1299;138294;-78
2022/11/17 02:21:33;;;;;;;7.70;5.30;;;;;;;2.69;82.86;99888.39;661323;1310;138418;-77
2022/11/17 02:36:49;;;;;;;9.80;5.00;;;;;;;2.65;83.28;99883.26;661894;1310;138422;-77
2022/11/17 02:51:56;;;;;;;13.50;6.80;;;;;;;2.50;84.18;99869.63;661638;1304;138108;-77
2022/11/17 03:06:59;;;;;;;8.90;5.50;;;;;;;2.61;84.28;99875.55;661693;1310;138019;-78
2022/11/17 03:22:27;;;;;;;15.70;12.10;;;;;;;2.65;84.34;99874.28;661468;1309;138017;-77
2022/11/17 03:37:34;;;;;;;6.30;4.40;;;;;;;2.51;84.17;99873.02;661853;1310;138821;-78
2022/11/17 03:52:37;;;;;;;8.20;5.40;;;;;;;2.46;84.20;99876.83;661300;1310;138154;-77
2022/11/17 04:07:43;;;;;;;8.20;4.80;;;;;;;2.41;84.23;99865.73;661661;1310;138223;-77
2022/11/17 04:23:05;;;;;;;6.30;3.80;;;;;;;2.38;84.34;99864.16;661203;1312;138625;-77
2022/11/17 04:38:11;;;;;;;8.60;5.40;;;;;;;2.38;84.55;99872.30;661149;1313;138013;-77
2022/11/17 04:53:14;;;;;;;11.60;7.30;;;;;;;2.56;84.74;99869.81;660940;1312;138286;-77
2022/11/17 05:08:17;;;;;;;13.50;6.50;;;;;;;2.67;84.96;99865.50;661066;1310;138685;-77
2022/11/17 05:38:43;;;;;;;13.00;8.60;;;;;;;2.66;84.43;99865.90;661698;1303;138177;-77
2022/11/17 05:53:48;;;;;;;24.60;11.90;;;;;;;2.86;84.28;99860.58;661322;1310;138388;-77
2022/11/17 06:08:51;;;;;;;13.00;7.10;;;;;;;2.93;82.89;99861.13;661280;1310;138473;-77
2022/11/17 06:23:54;;;;;;;15.80;7.50;;;;;;;2.89;80.49;99877.46;661678;1310;138256;-78
2022/11/17 06:38:58;;;;;;;12.10;6.80;;;;;;;2.81;78.23;99887.98;661677;1310;138245;-76
2022/11/17 06:54:02;;;;;;;14.50;8.90;;;;;;;2.69;78.08;99888.21;661466;1294;138260;-77
2022/11/17 07:09:09;;;;;;;13.30;8.00;;;;;;;2.66;77.74;99884.73;661707;1310;138228;-77
2022/11/17 07:24:13;;;;;;;10.30;7.20;;;;;;;2.65;77.28;99887.75;661665;1311;138075;-77
2022/11/17 07:39:17;;;;;;;10.00;6.80;;;;;;;2.76;77.07;99891.23;661559;1308;138359;-77
2022/11/17 07:54:24;;;;;;;11.10;8.20;;;;;;;2.68;76.79;99891.33;661559;1306;138606;-77
2022/11/17 08:09:27;;;;;;;21.10;10.80;;;;;;;2.77;76.57;99887.52;661655;1310;138316;-77
2022/11/17 08:24:31;;;;;;;48.20;21.10;;;;;;;2.89;76.32;99889.73;661717;1309;138599;-77
2022/11/17 08:39:34;;;;;;;30.50;12.60;;;;;;;3.08;76.56;99889.05;661403;1310;138437;-77
2022/11/17 08:54:38;;;;;;;202.70;60.00;;;;;;;3.11;76.34;99888.22;661817;1308;138395;-78
2022/11/17 09:09:42;;;;;;;417.30;137.40;;;;;;;3.20;75.61;99882.94;661341;1310;138402;-77
2022/11/17 09:24:46;;;;;;;102.80;38.40;;;;;;;3.25;74.84;99888.16;661698;1310;138712;-77
2022/11/17 09:39:49;;;;;;;19.90;8.40;;;;;;;3.20;72.65;99879.34;661282;1310;138408;-77
2022/11/17 09:55:20;;;;;;;20.00;8.30;;;;;;;3.36;71.31;99877.25;661300;1305;138959;-76
2022/11/17 10:10:33;;;;;;;20.00;9.70;;;;;;;3.54;69.67;99855.16;661177;1312;138189;-76
2022/11/17 10:25:40;;;;;;;14.30;7.60;;;;;;;3.83;69.03;99839.64;661564;1311;138308;-77
2022/11/17 10:40:44;;;;;;;163.70;57.60;;;;;;;4.40;68.19;99825.56;661299;1310;138194;-77
2022/11/17 10:56:03;;;;;;;36.10;17.20;;;;;;;4.95;67.87;99816.10;661168;1311;138766;-77
2022/11/17 11:11:17;;;;;;;27.40;12.00;;;;;;;5.71;65.69;99823.96;661761;1310;138535;-77
2022/11/17 11:26:45;;;;;;;77.80;27.60;;;;;;;6.07;65.47;99816.85;661475;1309;138827;-77
2022/11/17 11:42:21;;;;;;;25.50;11.40;;;;;;;7.18;63.16;99798.15;661661;1310;138675;-78
2022/11/17 11:57:34;;;;;;;37.20;21.00;;;;;;;7.05;62.41;99783.14;661393;1310;218553;-78
2022/11/17 12:12:39;;;;;;;11.10;7.70;;;;;;;8.44;59.00;99770.26;661385;1303;138052;-78
2022/11/17 12:27:44;;;;;;;13.10;7.60;;;;;;;9.05;56.61;99756.02;661317;1307;137514;-78
2022/11/17 12:43:26;;;;;;;71.70;20.50;;;;;;;9.90;56.35;99756.64;661550;1310;137495;-78
2022/11/17 12:59:03;;;;;;;19.60;11.30;;;;;;;12.02;56.02;99740.26;661432;1310;138350;-78
2022/11/17 13:14:12;;;;;;;8.40;6.20;;;;;;;16.60;48.96;99734.48;661035;1311;137907;-79
2022/11/17 13:29:21;;;;;;;11.50;8.90;;;;;;;17.27;44.22;99727.39;661065;1310;137651;-78
2022/11/17 13:44:27;;;;;;;17.70;9.00;;;;;;;15.79;43.98;99713.73;661298;1310;137920;-77
2022/11/17 13:59:33;;;;;;;19.90;9.50;;;;;;;10.23;47.73;99708.59;661305;1310;138068;-78
2022/11/17 14:14:37;;;;;;;38.80;18.10;;;;;;;8.04;50.86;99707.05;661083;1310;137937;-78
2022/11/17 14:29:41;;;;;;;198.50;68.40;;;;;;;6.89;53.39;99704.02;661696;1304;137993;-77
2022/11/17 14:44:45;;;;;;;56.20;24.90;;;;;;;6.10;55.16;99707.82;661347;1310;138070;-78
2022/11/17 14:59:48;;;;;;;57.40;24.70;;;;;;;5.48;56.75;99705.78;661384;1309;137635;-77
2022/11/17 15:14:52;;;;;;;101.10;37.90;;;;;;;4.71;58.27;99699.17;661418;1310;137728;-78
2022/11/17 15:29:56;;;;;;;76.70;38.70;;;;;;;4.03;60.05;99701.40;661015;1313;137833;-78
2022/11/17 15:44:59;;;;;;;155.80;56.90;;;;;;;3.66;60.90;99712.91;661247;1309;137673;-77
2022/11/17 16:00:05;;;;;;;532.40;181.90;;;;;;;3.38;61.96;99706.55;661401;1309;137839;-77
2022/11/17 16:15:09;;;;;;;137.10;56.70;;;;;;;3.09;62.87;99700.66;661610;1310;138413;-78
2022/11/17 16:30:14;;;;;;;289.00;100.90;;;;;;;2.73;63.42;99691.27;661114;1305;138869;-77
2022/11/17 16:45:18;;;;;;;144.10;55.80;;;;;;;2.42;64.53;99692.86;661084;1310;139426;-77
2022/11/17 17:00:22;;;;;;;181.80;70.30;;;;;;;2.16;65.39;99695.33;661290;1310;139081;-78
2022/11/17 17:15:25;;;;;;;156.20;53.90;;;;;;;2.03;66.19;99688.75;661413;1309;141226;-78
2022/11/17 17:30:29;;;;;;;80.50;39.00;;;;;;;1.84;66.87;99682.16;661364;1308;138678;-78
2022/11/17 17:45:36;;;;;;;303.50;90.30;;;;;;;1.43;67.27;99672.35;661112;1310;138568;-78
2022/11/17 18:00:40;;;;;;;357.30;119.50;;;;;;;1.24;67.98;99670.04;661427;1304;140396;-77
2022/11/17 18:15:43;;;;;;;643.40;249.20;;;;;;;1.19;68.21;99671.51;661287;1298;138643;-78
2022/11/17 18:30:47;;;;;;;492.10;175.70;;;;;;;1.00;68.93;99654.23;661195;1312;138776;-77
2022/11/17 18:45:51;;;;;;;246.60;86.90;;;;;;;0.76;69.17;99645.59;661249;1312;138937;-76
2022/11/17 19:00:56;;;;;;;527.80;199.70;;;;;;;0.64;69.88;99639.89;661361;1309;138646;-76
2022/11/17 19:16:21;;;;;;;533.70;213.30;;;;;;;0.51;70.46;99628.80;661652;1309;138858;-75
2022/11/17 19:31:25;;;;;;;412.40;148.20;;;;;;;0.39;70.68;99621.87;661159;1311;139060;-76
2022/11/17 19:46:30;;;;;;;329.60;118.80;;;;;;;0.24;71.03;99620.45;660953;1312;138873;-76
2022/11/17 20:01:34;;;;;;;320.30;118.20;;;;;;;0.11;71.65;99626.67;660901;1311;139113;-76
2022/11/17 20:16:38;;;;;;;408.10;133.60;;;;;;;-0.05;71.79;99626.02;661766;1310;138860;-76
2022/11/17 20:31:41;;;;;;;494.50;178.60;;;;;;;-0.17;71.98;99623.02;661230;1310;139110;-76
2022/11/17 20:46:45;;;;;;;510.70;192.20;;;;;;;-0.21;72.58;99611.39;661613;1309;138967;-76
2022/11/17 21:01:49;;;;;;;364.00;113.40;;;;;;;-0.30;73.02;99599.66;661685;1300;139261;-76
2022/11/17 21:16:56;;;;;;;330.50;111.40;;;;;;;-0.38;73.44;99589.09;661887;1310;138926;-77
2022/11/17 21:31:59;;;;;;;259.00;81.90;;;;;;;-0.43;74.09;99587.84;661427;1310;139368;-76
2022/11/17 21:47:03;;;;;;;188.30;64.40;;;;;;;-0.43;74.42;99577.17;661702;1310;138931;-76
2022/11/17 22:02:08;;;;;;;109.90;43.60;;;;;;;-0.23;75.36;99579.38;661720;1310;139862;-76
2022/11/17 22:17:12;;;;;;;46.10;21.80;;;;;;;0.03;78.11;99577.62;661497;1308;138854;-76
2022/11/17 22:32:16;;;;;;;61.50;26.20;;;;;;;0.29;79.49;99578.52;661889;1306;139005;-76
2022/11/17 22:47:19;;;;;;;53.50;24.20;;;;;;;0.32;82.39;99580.13;661391;1312;138435;-76
2022/11/17 23:02:22;;;;;;;64.50;26.20;;;;;;;0.42;83.57;99575.45;661458;1310;139105;-76
2022/11/17 23:17:26;;;;;;;65.00;27.00;;;;;;;0.44;85.11;99557.59;661718;1310;138487;-77
2022/11/17 23:32:29;;;;;;;25.80;13.80;;;;;;;0.46;85.09;99558.50;661720;1310;138819;-76
2022/11/17 23:47:33;;;;;;;40.70;20.70;;;;;;;0.54;84.60;99553.25;661446;1310;192275;-76
